McDonald, Tennessee
Current Conditions -  °F | °C
As of 5:15 PM on Tuesday 21 Oct 2014 (Local Time) from KRZR Reporting Station
Clear Clear  
Wind Chill: 70°   Ceiling: Unl
Heat Index: 70°   Visibility: 10mi
Dew Point: 43°   Wind: 8mph
Humidity: 38%   Direction: 310°NW
Pressure: 30"   Gusts: NA
Location:  35.11°N, 84.98°W
Report Text: KRZR 212115Z AUTO 31007KT 280V350 10SM CLR 21/06 A3000 RMK
Loading
Personal Weather Stations






























Interactive Weather Map
Tropical Storm Tracking
New forecast layout! Learn more

10-Day Weather Forecast

Advertisements
Track Severe Weather on mobile